sensor_id;sensor_type;location;lat;lon;timestamp;temperature;humidity
578;DHT22;275;48.492;9.214;2023-02-01T00:00:27;6.80;39.50
578;DHT22;275;48.492;9.214;2023-02-01T00:02:53;6.70;40.10
578;DHT22;275;48.492;9.214;2023-02-01T00:05:20;6.90;39.80
578;DHT22;275;48.492;9.214;2023-02-01T00:07:47;7.10;39.30
578;DHT22;275;48.492;9.214;2023-02-01T00:10:14;6.50;40.90
578;DHT22;275;48.492;9.214;2023-02-01T00:12:43;6.40;41.50
578;DHT22;275;48.492;9.214;2023-02-01T00:15:10;6.20;42.10
578;DHT22;275;48.492;9.214;2023-02-01T00:17:37;6.40;42.30
578;DHT22;275;48.492;9.214;2023-02-01T00:20:05;6.50;42.00
578;DHT22;275;48.492;9.214;2023-02-01T00:22:31;6.60;41.10
578;DHT22;275;48.492;9.214;2023-02-01T00:24:58;6.80;40.50
578;DHT22;275;48.492;9.214;2023-02-01T00:27:25;6.80;41.40
578;DHT22;275;48.492;9.214;2023-02-01T00:29:55;7.00;40.20
578;DHT22;275;48.492;9.214;2023-02-01T00:32:22;7.00;40.00
578;DHT22;275;48.492;9.214;2023-02-01T00:34:49;7.00;40.40
578;DHT22;275;48.492;9.214;2023-02-01T00:37:16;7.30;39.60
578;DHT22;275;48.492;9.214;2023-02-01T00:39:42;7.80;38.60
578;DHT22;275;48.492;9.214;2023-02-01T00:42:09;8.20;37.10
578;DHT22;275;48.492;9.214;2023-02-01T00:44:36;8.40;37.00
578;DHT22;275;48.492;9.214;2023-02-01T00:47:04;8.10;37.30
578;DHT22;275;48.492;9.214;2023-02-01T00:49:31;8.20;37.70
578;DHT22;275;48.492;9.214;2023-02-01T00:51:58;8.20;37.00
578;DHT22;275;48.492;9.214;2023-02-01T00:54:25;7.80;38.00
578;DHT22;275;48.492;9.214;2023-02-01T00:56:51;7.60;39.10
578;DHT22;275;48.492;9.214;2023-02-01T00:59:18;7.70;38.40
578;DHT22;275;48.492;9.214;2023-02-01T01:01:45;8.10;37.70
578;DHT22;275;48.492;9.214;2023-02-01T01:04:13;8.20;37.10
578;DHT22;275;48.492;9.214;2023-02-01T01:06:40;8.40;36.90
578;DHT22;275;48.492;9.214;2023-02-01T01:09:07;8.30;37.60
578;DHT22;275;48.492;9.214;2023-02-01T01:11:37;8.50;36.90
578;DHT22;275;48.492;9.214;2023-02-01T01:14:05;8.60;36.40
578;DHT22;275;48.492;9.214;2023-02-01T01:16:32;8.50;36.60
578;DHT22;275;48.492;9.214;2023-02-01T01:19:00;8.20;37.50
578;DHT22;275;48.492;9.214;2023-02-01T01:21:29;8.10;37.80
578;DHT22;275;48.492;9.214;2023-02-01T01:23:56;8.60;37.00
578;DHT22;275;48.492;9.214;2023-02-01T01:26:25;8.80;36.10
578;DHT22;275;48.492;9.214;2023-02-01T01:28:54;8.80;36.30
578;DHT22;275;48.492;9.214;2023-02-01T01:31:21;8.40;36.90
578;DHT22;275;48.492;9.214;2023-02-01T01:33:48;8.40;37.10
578;DHT22;275;48.492;9.214;2023-02-01T01:36:16;8.50;37.30
578;DHT22;275;48.492;9.214;2023-02-01T01:38:44;8.20;37.50
578;DHT22;275;48.492;9.214;2023-02-01T01:41:14;8.00;38.10
578;DHT22;275;48.492;9.214;2023-02-01T01:43:52;8.40;37.50
578;DHT22;275;48.492;9.214;2023-02-01T01:46:20;8.70;36.90
578;DHT22;275;48.492;9.214;2023-02-01T01:48:50;8.30;37.50
578;DHT22;275;48.492;9.214;2023-02-01T01:51:20;7.90;38.10
578;DHT22;275;48.492;9.214;2023-02-01T01:53:55;7.10;40.70
578;DHT22;275;48.492;9.214;2023-02-01T01:56:25;7.10;41.10
578;DHT22;275;48.492;9.214;2023-02-01T01:58:53;7.20;41.00
578;DHT22;275;48.492;9.214;2023-02-01T02:01:20;6.80;42.30
578;DHT22;275;48.492;9.214;2023-02-01T02:03:47;7.00;41.70
578;DHT22;275;48.492;9.214;2023-02-01T02:06:19;7.20;41.20
578;DHT22;275;48.492;9.214;2023-02-01T02:08:50;7.10;41.80
578;DHT22;275;48.492;9.214;2023-02-01T02:11:17;6.80;42.30
578;DHT22;275;48.492;9.214;2023-02-01T02:13:46;6.90;42.50
578;DHT22;275;48.492;9.214;2023-02-01T02:16:24;7.50;40.90
578;DHT22;275;48.492;9.214;2023-02-01T02:19:02;7.60;40.60
578;DHT22;275;48.492;9.214;2023-02-01T02:21:48;7.00;42.20
578;DHT22;275;48.492;9.214;2023-02-01T02:24:34;7.10;42.00
578;DHT22;275;48.492;9.214;2023-02-01T02:27:12;6.40;43.80
578;DHT22;275;48.492;9.214;2023-02-01T02:35:59;6.40;44.50
578;DHT22;275;48.492;9.214;2023-02-01T02:38:32;6.70;43.50
578;DHT22;275;48.492;9.214;2023-02-01T02:41:09;6.40;44.40
578;DHT22;275;48.492;9.214;2023-02-01T02:43:45;6.80;43.40
578;DHT22;275;48.492;9.214;2023-02-01T02:46:36;7.20;42.40
578;DHT22;275;48.492;9.214;2023-02-01T02:49:27;7.30;42.00
578;DHT22;275;48.492;9.214;2023-02-01T02:51:58;7.70;41.20
578;DHT22;275;48.492;9.214;2023-02-01T02:54:46;7.10;42.10
578;DHT22;275;48.492;9.214;2023-02-01T02:57:18;6.90;43.00
578;DHT22;275;48.492;9.214;2023-02-01T03:00:06;6.80;43.50
578;DHT22;275;48.492;9.214;2023-02-01T03:02:53;7.20;43.20
578;DHT22;275;48.492;9.214;2023-02-01T03:05:42;7.30;42.10
578;DHT22;275;48.492;9.214;2023-02-01T03:08:13;6.60;44.50
578;DHT22;275;48.492;9.214;2023-02-01T03:10:47;6.90;44.20
578;DHT22;275;48.492;9.214;2023-02-01T03:13:20;7.10;43.80
578;DHT22;275;48.492;9.214;2023-02-01T03:15:53;7.10;43.40
578;DHT22;275;48.492;9.214;2023-02-01T03:18:28;7.40;42.80
578;DHT22;275;48.492;9.214;2023-02-01T03:20:58;6.80;44.20
578;DHT22;275;48.492;9.214;2023-02-01T03:23:32;7.30;43.10
578;DHT22;275;48.492;9.214;2023-02-01T03:26:01;7.90;41.60
578;DHT22;275;48.492;9.214;2023-02-01T03:28:32;7.50;42.00
578;DHT22;275;48.492;9.214;2023-02-01T03:31:00;6.90;43.50
578;DHT22;275;48.492;9.214;2023-02-01T03:33:28;7.20;43.20
578;DHT22;275;48.492;9.214;2023-02-01T03:36:03;7.80;41.40
578;DHT22;275;48.492;9.214;2023-02-01T03:38:38;7.00;42.70
578;DHT22;275;48.492;9.214;2023-02-01T03:41:11;6.90;43.80
578;DHT22;275;48.492;9.214;2023-02-01T03:43:46;7.00;43.60
578;DHT22;275;48.492;9.214;2023-02-01T03:46:20;6.60;43.90
578;DHT22;275;48.492;9.214;2023-02-01T03:48:48;6.20;45.60
578;DHT22;275;48.492;9.214;2023-02-01T03:51:17;5.90;46.50
578;DHT22;275;48.492;9.214;2023-02-01T03:53:47;6.10;46.00
578;DHT22;275;48.492;9.214;2023-02-01T03:56:16;6.10;45.50
578;DHT22;275;48.492;9.214;2023-02-01T03:58:44;6.20;45.50
578;DHT22;275;48.492;9.214;2023-02-01T04:01:24;6.20;45.70
578;DHT22;275;48.492;9.214;2023-02-01T04:03:52;5.80;46.20
578;DHT22;275;48.492;9.214;2023-02-01T04:06:21;5.60;47.60
578;DHT22;275;48.492;9.214;2023-02-01T04:08:47;5.90;47.10
578;DHT22;275;48.492;9.214;2023-02-01T04:11:14;6.20;46.00
578;DHT22;275;48.492;9.214;2023-02-01T04:13:41;6.20;46.20
578;DHT22;275;48.492;9.214;2023-02-01T04:16:08;6.20;45.50
578;DHT22;275;48.492;9.214;2023-02-01T04:18:35;5.80;46.90
578;DHT22;275;48.492;9.214;2023-02-01T04:21:02;6.10;46.00
578;DHT22;275;48.492;9.214;2023-02-01T04:23:30;6.10;46.00
578;DHT22;275;48.492;9.214;2023-02-01T04:26:01;6.10;46.70
578;DHT22;275;48.492;9.214;2023-02-01T04:28:28;6.60;44.90
578;DHT22;275;48.492;9.214;2023-02-01T04:30:56;6.20;45.10
578;DHT22;275;48.492;9.214;2023-02-01T04:33:23;5.80;46.60
578;DHT22;275;48.492;9.214;2023-02-01T04:35:50;5.80;46.50
578;DHT22;275;48.492;9.214;2023-02-01T04:38:16;5.90;46.20
578;DHT22;275;48.492;9.214;2023-02-01T04:40:46;6.10;46.30
578;DHT22;275;48.492;9.214;2023-02-01T04:43:13;6.70;44.30
578;DHT22;275;48.492;9.214;2023-02-01T04:45:40;7.00;42.60
578;DHT22;275;48.492;9.214;2023-02-01T04:48:07;7.20;42.30
578;DHT22;275;48.492;9.214;2023-02-01T04:50:35;7.00;43.00
578;DHT22;275;48.492;9.214;2023-02-01T04:53:02;7.60;41.10
578;DHT22;275;48.492;9.214;2023-02-01T04:55:29;7.50;40.80
578;DHT22;275;48.492;9.214;2023-02-01T04:57:57;7.50;41.30
578;DHT22;275;48.492;9.214;2023-02-01T05:00:24;7.90;40.70
578;DHT22;275;48.492;9.214;2023-02-01T05:02:51;7.70;40.30
578;DHT22;275;48.492;9.214;2023-02-01T05:05:18;7.50;40.90
578;DHT22;275;48.492;9.214;2023-02-01T05:07:46;7.30;41.70
578;DHT22;275;48.492;9.214;2023-02-01T05:10:13;6.60;43.20
578;DHT22;275;48.492;9.214;2023-02-01T05:12:40;6.90;42.30
578;DHT22;275;48.492;9.214;2023-02-01T05:15:25;7.20;41.60
578;DHT22;275;48.492;9.214;2023-02-01T05:17:52;7.20;41.70
578;DHT22;275;48.492;9.214;2023-02-01T05:20:19;6.70;42.30
578;DHT22;275;48.492;9.214;2023-02-01T05:22:45;6.60;43.20
578;DHT22;275;48.492;9.214;2023-02-01T05:25:12;7.10;41.90
578;DHT22;275;48.492;9.214;2023-02-01T05:27:39;7.30;40.80
578;DHT22;275;48.492;9.214;2023-02-01T05:30:07;7.00;41.60
578;DHT22;275;48.492;9.214;2023-02-01T05:32:36;6.90;42.10
578;DHT22;275;48.492;9.214;2023-02-01T05:35:03;6.40;42.90
578;DHT22;275;48.492;9.214;2023-02-01T05:37:30;6.40;43.80
578;DHT22;275;48.492;9.214;2023-02-01T05:39:57;6.30;43.90
578;DHT22;275;48.492;9.214;2023-02-01T05:42:23;6.50;43.40
578;DHT22;275;48.492;9.214;2023-02-01T05:44:50;6.30;43.50
578;DHT22;275;48.492;9.214;2023-02-01T05:47:17;6.80;43.30
578;DHT22;275;48.492;9.214;2023-02-01T05:49:47;6.60;42.80
578;DHT22;275;48.492;9.214;2023-02-01T05:52:13;6.70;42.60
578;DHT22;275;48.492;9.214;2023-02-01T05:54:44;6.70;42.10
578;DHT22;275;48.492;9.214;2023-02-01T05:57:11;6.40;43.00
578;DHT22;275;48.492;9.214;2023-02-01T05:59:38;6.30;43.00
578;DHT22;275;48.492;9.214;2023-02-01T06:02:06;6.40;43.40
578;DHT22;275;48.492;9.214;2023-02-01T06:04:34;6.50;42.70
578;DHT22;275;48.492;9.214;2023-02-01T06:07:02;6.80;41.60
578;DHT22;275;48.492;9.214;2023-02-01T06:09:29;6.70;42.30
578;DHT22;275;48.492;9.214;2023-02-01T06:11:56;6.70;41.70
578;DHT22;275;48.492;9.214;2023-02-01T06:14:23;6.40;42.50
578;DHT22;275;48.492;9.214;2023-02-01T06:16:50;5.80;44.50
578;DHT22;275;48.492;9.214;2023-02-01T06:19:17;6.30;43.40
578;DHT22;275;48.492;9.214;2023-02-01T06:21:44;6.40;42.70
578;DHT22;275;48.492;9.214;2023-02-01T06:24:12;6.40;42.80
578;DHT22;275;48.492;9.214;2023-02-01T06:26:40;6.20;42.90
578;DHT22;275;48.492;9.214;2023-02-01T06:29:06;6.60;42.10
578;DHT22;275;48.492;9.214;2023-02-01T06:31:33;6.70;41.90
578;DHT22;275;48.492;9.214;2023-02-01T06:34:00;7.00;40.70
578;DHT22;275;48.492;9.214;2023-02-01T06:36:28;6.50;41.80
578;DHT22;275;48.492;9.214;2023-02-01T06:38:55;6.20;43.50
578;DHT22;275;48.492;9.214;2023-02-01T06:41:26;6.40;44.20
578;DHT22;275;48.492;9.214;2023-02-01T06:43:52;6.50;44.40
578;DHT22;275;48.492;9.214;2023-02-01T06:46:19;6.70;45.00
578;DHT22;275;48.492;9.214;2023-02-01T06:48:46;6.70;45.00
578;DHT22;275;48.492;9.214;2023-02-01T06:51:25;6.10;46.90
578;DHT22;275;48.492;9.214;2023-02-01T06:53:52;6.60;45.20
578;DHT22;275;48.492;9.214;2023-02-01T06:56:19;6.60;45.10
578;DHT22;275;48.492;9.214;2023-02-01T06:58:47;6.50;45.50
578;DHT22;275;48.492;9.214;2023-02-01T07:01:14;6.20;46.10
578;DHT22;275;48.492;9.214;2023-02-01T07:03:41;6.10;47.20
578;DHT22;275;48.492;9.214;2023-02-01T07:06:08;6.20;46.70
578;DHT22;275;48.492;9.214;2023-02-01T07:08:37;6.40;45.90
578;DHT22;275;48.492;9.214;2023-02-01T07:11:05;6.30;45.70
578;DHT22;275;48.492;9.214;2023-02-01T07:13:32;6.20;45.80
578;DHT22;275;48.492;9.214;2023-02-01T07:16:01;6.00;46.60
578;DHT22;275;48.492;9.214;2023-02-01T07:18:29;5.80;46.60
578;DHT22;275;48.492;9.214;2023-02-01T07:20:57;5.70;47.70
578;DHT22;275;48.492;9.214;2023-02-01T07:23:24;5.50;48.40
578;DHT22;275;48.492;9.214;2023-02-01T07:25:53;5.50;48.00
578;DHT22;275;48.492;9.214;2023-02-01T07:28:21;5.50;48.50
578;DHT22;275;48.492;9.214;2023-02-01T07:30:48;5.50;48.70
578;DHT22;275;48.492;9.214;2023-02-01T07:33:18;5.80;47.70
578;DHT22;275;48.492;9.214;2023-02-01T07:35:45;5.90;47.70
578;DHT22;275;48.492;9.214;2023-02-01T07:38:12;6.40;45.90
578;DHT22;275;48.492;9.214;2023-02-01T07:40:39;6.20;46.80
578;DHT22;275;48.492;9.214;2023-02-01T07:43:06;5.80;47.90
578;DHT22;275;48.492;9.214;2023-02-01T07:45:33;5.70;47.90
578;DHT22;275;48.492;9.214;2023-02-01T07:48:01;5.80;48.20
578;DHT22;275;48.492;9.214;2023-02-01T07:50:29;6.10;46.80
578;DHT22;275;48.492;9.214;2023-02-01T07:52:58;6.10;46.50
578;DHT22;275;48.492;9.214;2023-02-01T07:55:26;6.20;46.40
578;DHT22;275;48.492;9.214;2023-02-01T07:57:57;6.10;46.30
578;DHT22;275;48.492;9.214;2023-02-01T08:00:24;6.00;46.50
578;DHT22;275;48.492;9.214;2023-02-01T08:03:08;5.80;47.40
578;DHT22;275;48.492;9.214;2023-02-01T08:05:37;5.90;47.30
578;DHT22;275;48.492;9.214;2023-02-01T08:08:04;5.90;47.00
578;DHT22;275;48.492;9.214;2023-02-01T08:10:31;6.00;46.80
578;DHT22;275;48.492;9.214;2023-02-01T08:12:59;6.40;44.70
578;DHT22;275;48.492;9.214;2023-02-01T08:15:26;6.00;45.80
578;DHT22;275;48.492;9.214;2023-02-01T08:17:53;6.00;45.50
578;DHT22;275;48.492;9.214;2023-02-01T08:20:21;6.00;45.20
578;DHT22;275;48.492;9.214;2023-02-01T08:22:49;5.90;45.30
578;DHT22;275;48.492;9.214;2023-02-01T08:25:16;6.20;44.70
578;DHT22;275;48.492;9.214;2023-02-01T08:27:43;6.20;44.50
578;DHT22;275;48.492;9.214;2023-02-01T08:30:11;6.50;43.50
578;DHT22;275;48.492;9.214;2023-02-01T08:32:38;6.30;43.30
578;DHT22;275;48.492;9.214;2023-02-01T08:35:06;6.30;43.90
578;DHT22;275;48.492;9.214;2023-02-01T08:37:33;6.60;43.20
578;DHT22;275;48.492;9.214;2023-02-01T08:40:02;6.70;43.30
578;DHT22;275;48.492;9.214;2023-02-01T08:42:29;6.70;42.90
578;DHT22;275;48.492;9.214;2023-02-01T08:45:13;6.30;44.40
578;DHT22;275;48.492;9.214;2023-02-01T08:47:40;6.30;44.90
578;DHT22;275;48.492;9.214;2023-02-01T08:50:08;7.00;43.00
578;DHT22;275;48.492;9.214;2023-02-01T08:52:35;6.80;43.00
578;DHT22;275;48.492;9.214;2023-02-01T08:55:04;6.40;44.10
578;DHT22;275;48.492;9.214;2023-02-01T08:57:31;6.40;44.40
578;DHT22;275;48.492;9.214;2023-02-01T08:59:58;6.40;44.10
578;DHT22;275;48.492;9.214;2023-02-01T09:02:25;6.60;45.10
578;DHT22;275;48.492;9.214;2023-02-01T09:04:52;7.10;42.70
578;DHT22;275;48.492;9.214;2023-02-01T09:07:19;7.10;42.70
578;DHT22;275;48.492;9.214;2023-02-01T09:09:46;7.00;41.90
578;DHT22;275;48.492;9.214;2023-02-01T09:12:14;6.80;42.10
578;DHT22;275;48.492;9.214;2023-02-01T09:14:41;6.40;43.00
578;DHT22;275;48.492;9.214;2023-02-01T09:17:08;6.20;43.60
578;DHT22;275;48.492;9.214;2023-02-01T09:19:35;6.50;42.70
578;DHT22;275;48.492;9.214;2023-02-01T09:22:02;6.10;43.70
578;DHT22;275;48.492;9.214;2023-02-01T09:24:29;6.60;42.30
578;DHT22;275;48.492;9.214;2023-02-01T09:26:55;6.30;43.10
578;DHT22;275;48.492;9.214;2023-02-01T09:29:24;6.20;43.10
578;DHT22;275;48.492;9.214;2023-02-01T09:31:50;6.70;41.70
578;DHT22;275;48.492;9.214;2023-02-01T09:34:17;6.20;41.70
578;DHT22;275;48.492;9.214;2023-02-01T09:36:44;6.10;42.80
578;DHT22;275;48.492;9.214;2023-02-01T09:39:11;6.20;42.80
578;DHT22;275;48.492;9.214;2023-02-01T09:41:48;6.80;41.10
578;DHT22;275;48.492;9.214;2023-02-01T09:44:33;6.80;41.00
578;DHT22;275;48.492;9.214;2023-02-01T09:47:03;7.00;40.10
578;DHT22;275;48.492;9.214;2023-02-01T09:49:33;6.40;41.60
578;DHT22;275;48.492;9.214;2023-02-01T09:52:05;6.40;41.60
578;DHT22;275;48.492;9.214;2023-02-01T09:54:49;6.10;41.80
578;DHT22;275;48.492;9.214;2023-02-01T09:57:22;6.30;41.70
578;DHT22;275;48.492;9.214;2023-02-01T09:59:55;6.80;40.30
578;DHT22;275;48.492;9.214;2023-02-01T10:02:26;6.80;40.40
578;DHT22;275;48.492;9.214;2023-02-01T10:04:58;7.10;39.40
578;DHT22;275;48.492;9.214;2023-02-01T10:07:34;6.90;39.30
578;DHT22;275;48.492;9.214;2023-02-01T10:10:06;6.60;40.20
578;DHT22;275;48.492;9.214;2023-02-01T10:15:50;7.10;39.20
578;DHT22;275;48.492;9.214;2023-02-01T10:18:35;6.50;39.80
578;DHT22;275;48.492;9.214;2023-02-01T10:21:10;6.30;40.20
578;DHT22;275;48.492;9.214;2023-02-01T10:23:54;6.40;40.10
578;DHT22;275;48.492;9.214;2023-02-01T10:26:25;6.60;40.20
578;DHT22;275;48.492;9.214;2023-02-01T10:28:54;6.60;38.90
578;DHT22;275;48.492;9.214;2023-02-01T10:31:26;6.50;39.20
578;DHT22;275;48.492;9.214;2023-02-01T10:33:56;6.50;39.80
578;DHT22;275;48.492;9.214;2023-02-01T10:36:29;6.90;38.30
578;DHT22;275;48.492;9.214;2023-02-01T10:38:58;7.00;38.80
578;DHT22;275;48.492;9.214;2023-02-01T10:41:30;6.70;38.40
578;DHT22;275;48.492;9.214;2023-02-01T10:43:59;6.70;38.70
578;DHT22;275;48.492;9.214;2023-02-01T10:46:29;7.40;37.40
578;DHT22;275;48.492;9.214;2023-02-01T10:48:58;7.90;35.60
578;DHT22;275;48.492;9.214;2023-02-01T10:51:30;7.90;36.10
578;DHT22;275;48.492;9.214;2023-02-01T10:54:04;8.10;35.20
578;DHT22;275;48.492;9.214;2023-02-01T10:56:38;7.80;35.80
578;DHT22;275;48.492;9.214;2023-02-01T10:59:06;7.30;36.90
578;DHT22;275;48.492;9.214;2023-02-01T11:01:43;7.30;37.20
578;DHT22;275;48.492;9.214;2023-02-01T11:04:13;7.40;36.00
578;DHT22;275;48.492;9.214;2023-02-01T11:06:42;7.00;37.20
578;DHT22;275;48.492;9.214;2023-02-01T11:09:15;6.60;38.00
578;DHT22;275;48.492;9.214;2023-02-01T11:11:54;6.60;38.60
578;DHT22;275;48.492;9.214;2023-02-01T11:14:28;6.80;38.20
578;DHT22;275;48.492;9.214;2023-02-01T11:17:02;7.10;37.70
578;DHT22;275;48.492;9.214;2023-02-01T11:19:37;7.20;38.20
578;DHT22;275;48.492;9.214;2023-02-01T11:22:04;7.20;37.80
578;DHT22;275;48.492;9.214;2023-02-01T11:24:33;7.40;37.70
578;DHT22;275;48.492;9.214;2023-02-01T11:27:03;7.80;36.40
578;DHT22;275;48.492;9.214;2023-02-01T11:29:36;7.20;37.60
578;DHT22;275;48.492;9.214;2023-02-01T11:32:05;7.00;38.80
578;DHT22;275;48.492;9.214;2023-02-01T11:34:37;7.20;38.10
578;DHT22;275;48.492;9.214;2023-02-01T11:37:05;7.40;37.60
578;DHT22;275;48.492;9.214;2023-02-01T11:39:41;7.80;36.90
578;DHT22;275;48.492;9.214;2023-02-01T11:42:14;7.80;36.10
578;DHT22;275;48.492;9.214;2023-02-01T11:44:42;7.20;38.00
578;DHT22;275;48.492;9.214;2023-02-01T11:47:22;7.10;38.20
578;DHT22;275;48.492;9.214;2023-02-01T11:49:51;7.30;37.50
578;DHT22;275;48.492;9.214;2023-02-01T11:52:28;7.30;37.50
578;DHT22;275;48.492;9.214;2023-02-01T11:58:02;7.30;37.60
578;DHT22;275;48.492;9.214;2023-02-01T12:00:45;7.30;37.20
578;DHT22;275;48.492;9.214;2023-02-01T12:03:41;7.20;37.90
578;DHT22;275;48.492;9.214;2023-02-01T12:06:17;6.80;38.50
578;DHT22;275;48.492;9.214;2023-02-01T12:09:11;7.00;38.30
578;DHT22;275;48.492;9.214;2023-02-01T12:11:50;6.90;38.20
578;DHT22;275;48.492;9.214;2023-02-01T12:14:36;7.10;37.40
578;DHT22;275;48.492;9.214;2023-02-01T12:20:21;7.00;37.90
578;DHT22;275;48.492;9.214;2023-02-01T12:22:59;7.00;37.80
578;DHT22;275;48.492;9.214;2023-02-01T12:25:40;6.80;37.80
578;DHT22;275;48.492;9.214;2023-02-01T12:28:31;6.60;38.10
578;DHT22;275;48.492;9.214;2023-02-01T12:31:19;6.60;39.30
578;DHT22;275;48.492;9.214;2023-02-01T12:34:13;6.80;37.70
578;DHT22;275;48.492;9.214;2023-02-01T12:36:50;6.80;37.50
578;DHT22;275;48.492;9.214;2023-02-01T12:39:24;6.90;37.30
578;DHT22;275;48.492;9.214;2023-02-01T12:42:00;6.60;37.90
578;DHT22;275;48.492;9.214;2023-02-01T12:44:39;6.80;37.50
578;DHT22;275;48.492;9.214;2023-02-01T12:47:15;7.00;37.20
578;DHT22;275;48.492;9.214;2023-02-01T12:49:48;7.10;35.80
578;DHT22;275;48.492;9.214;2023-02-01T12:52:23;6.90;36.90
578;DHT22;275;48.492;9.214;2023-02-01T12:54:57;7.00;36.60
578;DHT22;275;48.492;9.214;2023-02-01T12:57:28;7.40;36.00
578;DHT22;275;48.492;9.214;2023-02-01T13:00:03;7.70;34.60
578;DHT22;275;48.492;9.214;2023-02-01T13:02:37;7.30;35.30
578;DHT22;275;48.492;9.214;2023-02-01T13:05:14;7.20;35.90
578;DHT22;275;48.492;9.214;2023-02-01T13:07:48;7.40;35.50
578;DHT22;275;48.492;9.214;2023-02-01T13:10:18;7.70;35.70
578;DHT22;275;48.492;9.214;2023-02-01T13:12:51;7.60;35.00
578;DHT22;275;48.492;9.214;2023-02-01T13:15:23;7.80;34.90
578;DHT22;275;48.492;9.214;2023-02-01T13:17:52;7.60;35.10
578;DHT22;275;48.492;9.214;2023-02-01T13:20:25;7.70;35.30
578;DHT22;275;48.492;9.214;2023-02-01T13:23:00;7.50;35.70
578;DHT22;275;48.492;9.214;2023-02-01T13:25:34;8.00;35.00
578;DHT22;275;48.492;9.214;2023-02-01T13:28:04;8.30;34.40
578;DHT22;275;48.492;9.214;2023-02-01T13:30:46;8.10;34.20
578;DHT22;275;48.492;9.214;2023-02-01T13:33:39;8.10;34.80
578;DHT22;275;48.492;9.214;2023-02-01T13:36:30;7.60;35.70
578;DHT22;275;48.492;9.214;2023-02-01T13:41:58;7.70;35.50
578;DHT22;275;48.492;9.214;2023-02-01T13:44:31;7.60;35.70
578;DHT22;275;48.492;9.214;2023-02-01T13:47:02;6.90;37.00
578;DHT22;275;48.492;9.214;2023-02-01T13:49:31;6.90;37.70
578;DHT22;275;48.492;9.214;2023-02-01T13:52:03;6.70;37.80
578;DHT22;275;48.492;9.214;2023-02-01T13:54:33;6.70;38.40
578;DHT22;275;48.492;9.214;2023-02-01T13:57:01;7.30;36.90
578;DHT22;275;48.492;9.214;2023-02-01T13:59:47;7.10;36.90
578;DHT22;275;48.492;9.214;2023-02-01T14:02:37;6.80;37.80
578;DHT22;275;48.492;9.214;2023-02-01T14:05:12;7.40;36.70
578;DHT22;275;48.492;9.214;2023-02-01T14:08:10;7.60;36.30
578;DHT22;275;48.492;9.214;2023-02-01T14:10:49;7.30;36.00
578;DHT22;275;48.492;9.214;2023-02-01T14:13:25;7.20;36.60
578;DHT22;275;48.492;9.214;2023-02-01T14:16:16;7.00;37.30
578;DHT22;275;48.492;9.214;2023-02-01T14:18:57;7.10;37.70
578;DHT22;275;48.492;9.214;2023-02-01T14:21:27;6.90;37.60
578;DHT22;275;48.492;9.214;2023-02-01T14:24:02;6.70;38.20
578;DHT22;275;48.492;9.214;2023-02-01T14:26:44;6.70;38.40
578;DHT22;275;48.492;9.214;2023-02-01T14:29:26;6.90;38.00
578;DHT22;275;48.492;9.214;2023-02-01T14:32:03;7.20;37.70
578;DHT22;275;48.492;9.214;2023-02-01T14:34:35;7.10;37.60
578;DHT22;275;48.492;9.214;2023-02-01T14:37:10;7.20;37.20
578;DHT22;275;48.492;9.214;2023-02-01T14:42:38;8.10;35.10
578;DHT22;275;48.492;9.214;2023-02-01T14:48:45;7.30;36.20
578;DHT22;275;48.492;9.214;2023-02-01T14:51:15;7.10;37.20
578;DHT22;275;48.492;9.214;2023-02-01T14:53:43;7.10;37.40
578;DHT22;275;48.492;9.214;2023-02-01T14:56:14;7.10;37.20
578;DHT22;275;48.492;9.214;2023-02-01T14:58:47;7.40;36.00
578;DHT22;275;48.492;9.214;2023-02-01T15:01:18;7.00;37.40
578;DHT22;275;48.492;9.214;2023-02-01T15:03:52;7.10;37.30
578;DHT22;275;48.492;9.214;2023-02-01T15:06:27;7.30;36.40
578;DHT22;275;48.492;9.214;2023-02-01T15:08:59;8.00;35.70
578;DHT22;275;48.492;9.214;2023-02-01T15:11:27;7.90;35.10
578;DHT22;275;48.492;9.214;2023-02-01T15:13:55;6.90;37.10
578;DHT22;275;48.492;9.214;2023-02-01T15:16:24;6.90;38.00
578;DHT22;275;48.492;9.214;2023-02-01T15:19:07;7.00;37.80
578;DHT22;275;48.492;9.214;2023-02-01T15:21:43;7.30;37.10
578;DHT22;275;48.492;9.214;2023-02-01T15:24:12;7.50;36.10
578;DHT22;275;48.492;9.214;2023-02-01T15:26:38;7.10;37.40
578;DHT22;275;48.492;9.214;2023-02-01T15:29:10;7.30;37.10
578;DHT22;275;48.492;9.214;2023-02-01T15:31:39;7.50;36.90
578;DHT22;275;48.492;9.214;2023-02-01T15:34:08;7.80;36.10
578;DHT22;275;48.492;9.214;2023-02-01T15:36:35;7.90;35.90
578;DHT22;275;48.492;9.214;2023-02-01T15:39:18;7.70;36.30
578;DHT22;275;48.492;9.214;2023-02-01T15:41:54;7.80;36.20
578;DHT22;275;48.492;9.214;2023-02-01T15:44:32;7.50;36.60
578;DHT22;275;48.492;9.214;2023-02-01T15:47:04;7.50;36.50
578;DHT22;275;48.492;9.214;2023-02-01T15:49:36;7.80;36.10
578;DHT22;275;48.492;9.214;2023-02-01T15:52:08;7.70;36.00
578;DHT22;275;48.492;9.214;2023-02-01T15:54:47;7.40;36.20
578;DHT22;275;48.492;9.214;2023-02-01T15:57:20;7.00;38.00
578;DHT22;275;48.492;9.214;2023-02-01T15:59:49;7.10;37.60
578;DHT22;275;48.492;9.214;2023-02-01T16:02:28;7.10;37.90
578;DHT22;275;48.492;9.214;2023-02-01T16:04:59;7.50;36.90
578;DHT22;275;48.492;9.214;2023-02-01T16:07:28;7.80;36.10
578;DHT22;275;48.492;9.214;2023-02-01T16:09:57;7.30;36.30
578;DHT22;275;48.492;9.214;2023-02-01T16:12:29;7.00;37.10
578;DHT22;275;48.492;9.214;2023-02-01T16:14:57;7.00;37.60
578;DHT22;275;48.492;9.214;2023-02-01T16:17:24;6.60;38.00
578;DHT22;275;48.492;9.214;2023-02-01T16:19:51;6.40;38.50
578;DHT22;275;48.492;9.214;2023-02-01T16:22:18;6.60;38.40
578;DHT22;275;48.492;9.214;2023-02-01T16:24:45;6.70;38.20
578;DHT22;275;48.492;9.214;2023-02-01T16:27:12;6.90;37.40
578;DHT22;275;48.492;9.214;2023-02-01T16:29:38;6.90;37.90
578;DHT22;275;48.492;9.214;2023-02-01T16:32:14;7.20;37.20
578;DHT22;275;48.492;9.214;2023-02-01T16:34:43;7.40;36.50
578;DHT22;275;48.492;9.214;2023-02-01T16:37:12;7.40;36.10
578;DHT22;275;48.492;9.214;2023-02-01T16:39:39;7.70;36.30
578;DHT22;275;48.492;9.214;2023-02-01T16:42:10;7.60;36.20
578;DHT22;275;48.492;9.214;2023-02-01T16:44:38;7.40;36.30
578;DHT22;275;48.492;9.214;2023-02-01T16:47:11;7.50;36.30
578;DHT22;275;48.492;9.214;2023-02-01T16:49:40;6.90;37.20
578;DHT22;275;48.492;9.214;2023-02-01T16:52:13;7.00;37.50
578;DHT22;275;48.492;9.214;2023-02-01T16:54:40;6.90;37.80
578;DHT22;275;48.492;9.214;2023-02-01T16:57:11;6.50;38.70
578;DHT22;275;48.492;9.214;2023-02-01T16:59:39;6.90;37.40
578;DHT22;275;48.492;9.214;2023-02-01T17:02:11;6.80;37.80
578;DHT22;275;48.492;9.214;2023-02-01T17:04:38;6.50;38.20
578;DHT22;275;48.492;9.214;2023-02-01T17:07:05;6.70;38.20
578;DHT22;275;48.492;9.214;2023-02-01T17:09:35;7.10;37.50
578;DHT22;275;48.492;9.214;2023-02-01T17:12:03;6.80;37.70
578;DHT22;275;48.492;9.214;2023-02-01T17:14:31;7.20;36.80
578;DHT22;275;48.492;9.214;2023-02-01T17:16:59;6.70;37.70
578;DHT22;275;48.492;9.214;2023-02-01T17:19:27;6.70;38.30
578;DHT22;275;48.492;9.214;2023-02-01T17:21:55;7.20;37.40
578;DHT22;275;48.492;9.214;2023-02-01T17:24:25;7.40;37.20
578;DHT22;275;48.492;9.214;2023-02-01T17:26:52;7.40;36.30
578;DHT22;275;48.492;9.214;2023-02-01T17:29:19;6.90;37.80
578;DHT22;275;48.492;9.214;2023-02-01T17:31:49;7.00;37.80
578;DHT22;275;48.492;9.214;2023-02-01T17:34:16;6.90;38.30
578;DHT22;275;48.492;9.214;2023-02-01T17:36:46;6.70;38.20
578;DHT22;275;48.492;9.214;2023-02-01T17:39:14;6.90;38.10
578;DHT22;275;48.492;9.214;2023-02-01T17:42:02;6.90;38.20